Time;durP1;ratioP1;P1;durP2;ratioP2;P2;SDS_P1;SDS_P2;PMS_P1;PMS_P2;Temp;Humidity;BMP_temperature;BMP_pressure;BME280_temperature;BME280_humidity;BME280_pressure;Samples;Min_cycle;Max_cycle;Signal;HPM_P1;HPM_P2
2022/02/27 00:01:40;;;;;;;20.73;6.10;;;-2.30;99.90;;;;;;5079914;28;20371;-72
2022/02/27 00:04:08;;;;;;;13.27;5.38;;;-2.30;99.90;;;;;;5045476;28;20394;-72
2022/02/27 00:06:36;;;;;;;14.32;4.25;;;-2.30;99.90;;;;;;5080093;28;20025;-72
2022/02/27 00:09:03;;;;;;;10.45;4.07;;;-2.30;99.90;;;;;;5080355;28;20048;-72
2022/02/27 00:11:31;;;;;;;10.05;3.00;;;-2.30;99.90;;;;;;5080373;28;20032;-71
2022/02/27 00:13:58;;;;;;;10.23;2.88;;;-2.40;99.90;;;;;;5079571;28;20061;-72
2022/02/27 00:16:26;;;;;;;6.57;2.67;;;-2.40;99.90;;;;;;5080383;28;20159;-72
2022/02/27 00:18:53;;;;;;;10.88;3.65;;;-2.40;99.90;;;;;;5062083;28;20408;-72
2022/02/27 00:21:20;;;;;;;26.63;11.18;;;-2.40;99.90;;;;;;5080686;28;20028;-72
2022/02/27 00:23:48;;;;;;;37.53;16.30;;;-2.40;99.90;;;;;;5062818;28;20049;-72
2022/02/27 00:26:15;;;;;;;27.50;11.82;;;-2.40;99.90;;;;;;5062832;28;20028;-72
2022/02/27 00:28:43;;;;;;;26.13;10.73;;;-2.40;99.90;;;;;;5062603;28;20028;-72
2022/02/27 00:31:10;;;;;;;20.33;6.53;;;-2.40;99.90;;;;;;5080542;28;20029;-72
2022/02/27 00:33:37;;;;;;;24.02;6.93;;;-2.50;99.90;;;;;;5080676;28;20317;-72
2022/02/27 00:36:06;;;;;;;21.77;4.35;;;-2.40;99.90;;;;;;5080327;28;20028;-72
2022/02/27 00:38:33;;;;;;;25.48;6.53;;;-2.50;99.90;;;;;;5080134;28;20100;-71
2022/02/27 00:41:02;;;;;;;21.65;8.00;;;-2.50;99.90;;;;;;5079881;28;20021;-72
2022/02/27 00:43:29;;;;;;;19.02;6.30;;;-2.50;99.90;;;;;;5079163;28;20329;-71
2022/02/27 00:45:57;;;;;;;19.30;6.07;;;-2.50;99.90;;;;;;5079301;28;20029;-72
2022/02/27 00:48:24;;;;;;;19.13;7.00;;;-2.60;99.90;;;;;;5077959;28;20028;-71
2022/02/27 00:50:51;;;;;;;24.63;7.90;;;-2.60;99.90;;;;;;5079116;28;20324;-72
2022/02/27 00:53:19;;;;;;;27.83;9.20;;;-2.60;99.90;;;;;;5078815;28;20063;-72
2022/02/27 00:55:46;;;;;;;25.35;8.88;;;-2.60;99.90;;;;;;5061569;28;20047;-72
2022/02/27 00:58:14;;;;;;;36.38;10.95;;;-2.60;99.90;;;;;;5079154;28;20366;-71
2022/02/27 01:00:41;;;;;;;34.65;9.45;;;-2.60;99.90;;;;;;5079124;28;20363;-72
2022/02/27 01:03:09;;;;;;;19.40;6.43;;;-2.50;99.90;;;;;;5079373;28;20016;-71
2022/02/27 01:05:36;;;;;;;18.75;5.78;;;-2.60;99.90;;;;;;5061904;28;20024;-71
2022/02/27 01:08:04;;;;;;;20.95;7.50;;;-2.60;99.90;;;;;;5079628;28;20396;-72
2022/02/27 01:10:31;;;;;;;28.10;7.88;;;-2.60;99.90;;;;;;5079624;28;20016;-72
2022/02/27 01:12:59;;;;;;;18.95;6.05;;;-2.60;99.90;;;;;;5061932;28;20024;-72
2022/02/27 01:15:26;;;;;;;18.40;6.88;;;-2.60;99.90;;;;;;5079498;28;20016;-72
2022/02/27 01:17:53;;;;;;;17.15;5.32;;;-2.60;99.90;;;;;;5080293;28;20333;-72
2022/02/27 01:20:21;;;;;;;15.65;5.25;;;-2.70;99.90;;;;;;5079636;28;20017;-72
2022/02/27 01:22:48;;;;;;;12.73;4.72;;;-2.70;99.90;;;;;;5061606;28;20028;-71
2022/02/27 01:25:15;;;;;;;15.88;4.80;;;-2.70;99.90;;;;;;5057159;28;20353;-71
2022/02/27 01:27:42;;;;;;;18.80;7.20;;;-2.70;99.90;;;;;;5058352;28;20476;-72
2022/02/27 01:30:11;;;;;;;13.07;5.13;;;-2.70;99.90;;;;;;5058256;28;20025;-71
2022/02/27 01:32:38;;;;;;;10.93;5.25;;;-2.70;99.90;;;;;;5058424;28;20029;-72
2022/02/27 01:35:08;;;;;;;12.85;4.90;;;-2.80;99.90;;;;;;5058098;28;20035;-72
2022/02/27 01:37:36;;;;;;;19.77;5.05;;;-2.80;99.90;;;;;;5058205;28;20031;-71
2022/02/27 01:40:05;;;;;;;11.80;5.32;;;-2.80;99.90;;;;;;5057032;28;20112;-72
2022/02/27 01:42:32;;;;;;;19.08;4.70;;;-2.80;99.90;;;;;;5058265;28;20021;-72
2022/02/27 01:45:04;;;;;;;13.30;4.80;;;-2.80;99.90;;;;;;5057864;28;20032;-72
2022/02/27 01:47:31;;;;;;;11.98;4.72;;;-2.90;99.90;;;;;;5057701;28;20078;-71
2022/02/27 01:49:59;;;;;;;12.25;4.30;;;-2.90;99.90;;;;;;5058845;28;20440;-71
2022/02/27 01:52:26;;;;;;;17.30;4.28;;;-2.80;99.90;;;;;;5059438;28;20116;-71
2022/02/27 01:54:53;;;;;;;15.43;4.05;;;-2.90;99.90;;;;;;5058976;28;20025;-71
2022/02/27 01:57:21;;;;;;;12.30;3.88;;;-2.90;99.90;;;;;;5059224;28;20146;-72
2022/02/27 01:59:49;;;;;;;11.05;4.22;;;-2.90;99.90;;;;;;5058621;28;20017;-72
2022/02/27 02:02:16;;;;;;;10.80;4.22;;;-2.90;99.90;;;;;;5059277;28;20049;-72
2022/02/27 02:04:44;;;;;;;14.35;3.95;;;-2.90;99.90;;;;;;5057520;28;20111;-72
2022/02/27 02:07:12;;;;;;;11.13;3.80;;;-2.90;99.90;;;;;;5057829;28;20029;-72
2022/02/27 02:09:40;;;;;;;11.93;5.10;;;-2.90;99.90;;;;;;5056473;28;20054;-72
2022/02/27 02:12:10;;;;;;;17.00;3.78;;;-2.90;99.90;;;;;;5058131;28;20405;-72
2022/02/27 02:14:37;;;;;;;11.07;4.57;;;-3.00;99.90;;;;;;5056300;28;20032;-72
2022/02/27 02:17:05;;;;;;;8.35;3.67;;;-3.00;99.90;;;;;;5057676;28;20091;-72
2022/02/27 02:19:32;;;;;;;18.40;5.50;;;-3.00;99.90;;;;;;5056285;28;20024;-72
2022/02/27 02:22:01;;;;;;;10.55;4.53;;;-3.00;99.90;;;;;;5057371;28;20021;-72
2022/02/27 02:24:29;;;;;;;12.18;4.88;;;-3.00;99.90;;;;;;5056029;28;20044;-72
2022/02/27 02:26:57;;;;;;;13.43;4.70;;;-3.00;99.90;;;;;;5057532;28;20035;-71
2022/02/27 02:29:25;;;;;;;16.05;4.60;;;-3.00;99.90;;;;;;5056433;28;20025;-72
2022/02/27 02:31:55;;;;;;;10.20;4.38;;;-3.00;99.90;;;;;;5058010;28;20112;-72
2022/02/27 02:34:23;;;;;;;18.00;4.53;;;-3.00;99.90;;;;;;5057883;28;20025;-71
2022/02/27 02:36:51;;;;;;;14.77;5.50;;;-3.00;99.90;;;;;;5057862;28;20021;-72
2022/02/27 02:39:20;;;;;;;14.77;4.40;;;-3.10;99.90;;;;;;5040245;28;20032;-72
2022/02/27 02:41:48;;;;;;;12.50;4.70;;;-3.10;99.90;;;;;;5058026;28;20017;-71
2022/02/27 02:44:15;;;;;;;10.10;4.53;;;-3.10;99.90;;;;;;5058352;28;20313;-72
2022/02/27 02:46:43;;;;;;;14.32;4.63;;;-3.10;99.90;;;;;;5057885;28;20161;-72
2022/02/27 02:49:13;;;;;;;14.10;4.30;;;-3.10;99.90;;;;;;5057130;28;20051;-72
2022/02/27 02:51:42;;;;;;;11.35;4.13;;;-3.10;99.90;;;;;;5057580;28;20346;-71
2022/02/27 02:54:10;;;;;;;9.38;3.22;;;-3.10;99.90;;;;;;5055576;28;20024;-72
2022/02/27 02:56:38;;;;;;;10.63;4.18;;;-3.10;99.90;;;;;;5056874;28;20028;-72
2022/02/27 02:59:05;;;;;;;9.07;3.63;;;-3.00;99.90;;;;;;5055606;28;20115;-71
2022/02/27 03:01:32;;;;;;;9.25;4.00;;;-3.00;99.90;;;;;;5056690;28;20021;-71
2022/02/27 03:04:01;;;;;;;13.90;4.20;;;-3.00;99.90;;;;;;5056566;28;20104;-71
2022/02/27 03:06:30;;;;;;;12.88;3.60;;;-3.10;99.90;;;;;;5056684;28;20021;-71
2022/02/27 03:08:57;;;;;;;21.90;3.90;;;-3.10;99.90;;;;;;5056448;28;20029;-72
2022/02/27 03:11:25;;;;;;;11.77;4.03;;;-3.10;99.90;;;;;;5056991;28;20024;-72
2022/02/27 03:13:52;;;;;;;8.88;5.20;;;-3.10;99.90;;;;;;5057546;28;20321;-72
2022/02/27 03:16:19;;;;;;;13.20;3.58;;;-3.20;99.90;;;;;;5057817;28;20371;-71
2022/02/27 03:18:46;;;;;;;16.13;4.53;;;-3.20;99.90;;;;;;5057292;28;20083;-72
2022/02/27 03:21:14;;;;;;;7.90;3.55;;;-3.20;99.90;;;;;;5056623;28;20021;-72
2022/02/27 03:23:41;;;;;;;9.88;3.45;;;-3.20;99.90;;;;;;5059117;28;20413;-72
2022/02/27 03:26:09;;;;;;;14.00;3.53;;;-3.20;99.90;;;;;;5059686;28;20054;-72
2022/02/27 03:28:36;;;;;;;14.68;3.05;;;-3.20;99.90;;;;;;5077353;28;20028;-72
2022/02/27 03:31:04;;;;;;;13.52;3.47;;;-3.20;99.90;;;;;;5079169;28;20047;-71
2022/02/27 03:33:31;;;;;;;10.00;4.20;;;-3.30;99.90;;;;;;5062652;28;20429;-72
2022/02/27 03:35:59;;;;;;;15.90;4.18;;;-3.30;99.90;;;;;;5080924;28;20144;-72
2022/02/27 03:38:26;;;;;;;12.05;3.17;;;-3.30;99.90;;;;;;5081002;28;20033;-72
2022/02/27 03:40:54;;;;;;;16.88;3.72;;;-3.30;99.90;;;;;;5080952;28;20020;-72
2022/02/27 03:43:21;;;;;;;9.88;3.72;;;-3.30;99.90;;;;;;5062699;28;20021;-72
2022/02/27 03:45:48;;;;;;;15.70;3.38;;;-3.30;99.90;;;;;;5062671;28;20027;-72
2022/02/27 03:48:16;;;;;;;10.52;3.00;;;-3.40;99.90;;;;;;5080822;28;20020;-71
2022/02/27 03:50:43;;;;;;;9.45;3.45;;;-3.40;99.90;;;;;;5080232;28;20024;-72
2022/02/27 03:53:10;;;;;;;11.40;4.03;;;-3.40;99.90;;;;;;5062712;28;20032;-72
2022/02/27 03:55:38;;;;;;;14.60;4.28;;;-3.40;99.90;;;;;;5063217;28;20428;-72
2022/02/27 03:58:05;;;;;;;20.15;4.07;;;-3.40;99.90;;;;;;5081454;28;20051;-72
2022/02/27 04:00:32;;;;;;;15.30;4.50;;;-3.40;99.90;;;;;;5082005;28;20305;-71
2022/02/27 04:03:00;;;;;;;12.50;3.88;;;-3.50;99.90;;;;;;5063119;28;20305;-72
2022/02/27 04:05:27;;;;;;;18.60;3.92;;;-3.40;99.90;;;;;;5080858;28;20107;-71
2022/02/27 04:07:54;;;;;;;11.73;3.67;;;-3.40;99.90;;;;;;5080984;28;20328;-71
2022/02/27 04:10:22;;;;;;;15.27;3.55;;;-3.50;99.90;;;;;;5081294;28;20124;-72
2022/02/27 04:12:50;;;;;;;9.35;3.50;;;-3.50;99.90;;;;;;5080959;28;20012;-71
2022/02/27 04:15:17;;;;;;;17.20;3.80;;;-3.50;99.90;;;;;;5080467;28;20029;-72
2022/02/27 04:17:45;;;;;;;8.32;3.50;;;-3.50;99.90;;;;;;5079839;28;20027;-71
2022/02/27 04:20:12;;;;;;;7.72;3.50;;;-3.50;99.90;;;;;;5079862;28;20322;-71
2022/02/27 04:22:40;;;;;;;12.77;3.70;;;-3.60;99.90;;;;;;5079565;28;20029;-72
2022/02/27 04:25:07;;;;;;;13.40;4.65;;;-3.60;99.90;;;;;;5058166;28;20060;-72
2022/02/27 04:27:34;;;;;;;11.77;4.13;;;-3.50;99.90;;;;;;5059697;28;20104;-72
2022/02/27 04:30:02;;;;;;;10.90;3.67;;;-3.60;99.90;;;;;;5058348;28;20420;-71
2022/02/27 04:32:29;;;;;;;13.32;3.05;;;-3.60;99.90;;;;;;5059389;28;20025;-71
2022/02/27 04:34:56;;;;;;;10.52;2.83;;;-3.60;99.90;;;;;;5058103;28;20039;-71
2022/02/27 04:37:24;;;;;;;13.88;3.70;;;-3.60;99.90;;;;;;5058637;28;20028;-72
2022/02/27 04:39:51;;;;;;;14.27;3.25;;;-3.60;99.90;;;;;;5059131;28;20056;-71
2022/02/27 04:42:19;;;;;;;11.23;3.00;;;-3.60;99.90;;;;;;5057972;28;20025;-72
2022/02/27 04:44:46;;;;;;;7.97;3.10;;;-3.60;99.90;;;;;;5060358;28;20108;-71
2022/02/27 04:47:14;;;;;;;10.55;4.38;;;-3.70;99.90;;;;;;5060425;28;20112;-72
2022/02/27 04:49:41;;;;;;;19.08;3.15;;;-3.60;99.90;;;;;;5060569;28;20036;-71
2022/02/27 04:52:08;;;;;;;15.05;4.15;;;-3.70;99.90;;;;;;5059305;28;20020;-71
2022/02/27 04:54:35;;;;;;;14.32;3.95;;;-3.70;99.90;;;;;;5058754;28;20032;-71
2022/02/27 04:57:03;;;;;;;15.57;3.85;;;-3.70;99.90;;;;;;5058592;28;20025;-71
2022/02/27 04:59:31;;;;;;;9.77;3.90;;;-3.70;99.90;;;;;;5059439;28;20074;-71
2022/02/27 05:01:58;;;;;;;11.80;3.50;;;-3.70;99.90;;;;;;5059390;28;20304;-71
2022/02/27 05:04:26;;;;;;;13.48;3.60;;;-3.80;99.90;;;;;;5059321;28;20028;-72
2022/02/27 05:06:53;;;;;;;10.85;3.05;;;-3.80;99.90;;;;;;5058680;28;20050;-72
2022/02/27 05:09:20;;;;;;;10.45;3.40;;;-3.80;99.90;;;;;;5059232;28;20022;-72
2022/02/27 05:11:51;;;;;;;14.52;3.60;;;-3.80;99.90;;;;;;5058871;28;20024;-72
2022/02/27 05:14:18;;;;;;;9.40;3.40;;;-3.80;99.90;;;;;;5058765;28;20108;-72
2022/02/27 05:16:45;;;;;;;13.30;3.40;;;-3.80;99.90;;;;;;5040952;28;20017;-72
2022/02/27 05:19:13;;;;;;;15.45;4.57;;;-3.80;99.90;;;;;;5058789;28;20013;-72
2022/02/27 05:21:40;;;;;;;20.00;4.80;;;-3.80;99.90;;;;;;5059546;28;20017;-71
2022/02/27 05:24:07;;;;;;;24.27;6.35;;;-3.80;99.90;;;;;;5058071;28;20103;-72
2022/02/27 05:26:34;;;;;;;75.40;21.20;;;-3.80;99.90;;;;;;5059820;28;20032;-72
2022/02/27 05:29:02;;;;;;;79.80;21.35;;;-3.80;99.90;;;;;;5059743;28;20082;-72
2022/02/27 05:31:30;;;;;;;55.70;16.67;;;-3.80;99.90;;;;;;5059258;28;20104;-72
2022/02/27 05:33:58;;;;;;;70.25;20.00;;;-3.80;99.90;;;;;;5059677;28;20463;-72
2022/02/27 05:36:25;;;;;;;61.05;15.02;;;-3.80;99.90;;;;;;5058215;28;20021;-72
2022/02/27 05:38:53;;;;;;;46.03;13.45;;;-3.80;99.90;;;;;;5057752;28;20361;-72
2022/02/27 05:41:20;;;;;;;50.55;11.23;;;-3.70;99.90;;;;;;5058321;28;20070;-71
2022/02/27 05:43:48;;;;;;;37.42;9.75;;;-3.80;99.90;;;;;;5056943;28;20025;-72
2022/02/27 05:46:15;;;;;;;37.58;11.18;;;-3.80;99.90;;;;;;5058152;28;20025;-72
2022/02/27 05:48:42;;;;;;;48.55;13.13;;;-3.80;99.90;;;;;;5056832;28;20071;-72
2022/02/27 05:51:09;;;;;;;44.60;12.25;;;-3.80;99.90;;;;;;5056811;28;20029;-72
2022/02/27 05:53:37;;;;;;;80.53;24.25;;;-3.80;99.90;;;;;;5056515;28;20086;-72
2022/02/27 05:56:05;;;;;;;98.68;26.35;;;-3.80;99.90;;;;;;5057966;28;20024;-72
2022/02/27 05:58:34;;;;;;;55.47;17.17;;;-3.80;99.90;;;;;;5057781;28;20021;-72
2022/02/27 06:01:02;;;;;;;48.75;13.68;;;-3.80;99.90;;;;;;5057682;28;20104;-72
2022/02/27 06:03:29;;;;;;;41.65;11.05;;;-3.80;99.90;;;;;;5058550;28;20096;-71
2022/02/27 06:05:56;;;;;;;59.13;16.90;;;-3.80;99.90;;;;;;5074552;28;20099;-71
2022/02/27 06:08:24;;;;;;;46.50;14.45;;;-3.80;99.90;;;;;;5059045;28;20017;-71
2022/02/27 06:10:51;;;;;;;50.50;15.50;;;-3.70;99.90;;;;;;5058439;28;20020;-72
2022/02/27 06:13:19;;;;;;;33.05;12.30;;;-3.70;99.90;;;;;;5058595;28;20072;-71
2022/02/27 06:15:46;;;;;;;40.95;13.82;;;-3.70;99.90;;;;;;5057250;28;20445;-71
2022/02/27 06:18:13;;;;;;;41.40;13.90;;;-3.70;99.90;;;;;;5058297;28;20017;-71
2022/02/27 06:20:40;;;;;;;34.42;11.95;;;-3.70;99.90;;;;;;5058826;28;20017;-72
2022/02/27 06:23:09;;;;;;;33.50;10.68;;;-3.70;99.90;;;;;;5056247;28;20119;-72
2022/02/27 06:25:36;;;;;;;21.73;7.45;;;-3.70;99.90;;;;;;5074716;28;20079;-71
2022/02/27 06:28:04;;;;;;;25.27;7.30;;;-3.70;99.90;;;;;;5077138;28;20052;-71
2022/02/27 06:30:32;;;;;;;17.48;5.32;;;-3.60;99.90;;;;;;5077281;28;20145;-71
2022/02/27 06:33:00;;;;;;;16.20;4.82;;;-3.50;99.90;;;;;;5059416;28;20024;-71
2022/02/27 06:35:27;;;;;;;14.80;5.78;;;-3.40;99.90;;;;;;5076941;28;20098;-71
2022/02/27 06:37:55;;;;;;;14.02;6.50;;;-3.30;99.90;;;;;;5077077;28;20016;-72
2022/02/27 06:40:22;;;;;;;14.52;6.55;;;-3.20;99.90;;;;;;5077713;28;20023;-72
2022/02/27 06:42:50;;;;;;;18.85;7.03;;;-3.10;99.90;;;;;;5042910;28;20112;-72
2022/02/27 06:45:18;;;;;;;16.63;5.43;;;-3.10;99.90;;;;;;5077724;28;20051;-68
2022/02/27 06:47:45;;;;;;;19.90;6.05;;;-3.10;99.90;;;;;;5060066;28;20074;-72
2022/02/27 06:50:13;;;;;;;11.13;4.35;;;-3.10;99.90;;;;;;5078538;28;20029;-72
2022/02/27 06:52:41;;;;;;;14.00;4.85;;;-3.10;99.90;;;;;;5078454;28;20023;-73
2022/02/27 06:55:10;;;;;;;14.43;4.53;;;-3.10;99.90;;;;;;5077675;28;20103;-75
2022/02/27 06:57:37;;;;;;;12.80;5.15;;;-3.00;99.90;;;;;;5077710;28;20100;-75
2022/02/27 07:00:06;;;;;;;16.20;4.45;;;-3.00;99.90;;;;;;5077636;28;20021;-75
2022/02/27 07:02:33;;;;;;;15.75;4.18;;;-3.00;99.90;;;;;;5077830;28;20023;-76
2022/02/27 07:05:01;;;;;;;10.15;4.05;;;-3.00;99.90;;;;;;5058625;28;20116;-76
2022/02/27 07:07:29;;;;;;;12.10;3.67;;;-3.00;99.90;;;;;;5058853;28;20115;-76
2022/02/27 07:10:00;;;;;;;12.70;4.93;;;-3.00;99.90;;;;;;5076606;28;20025;-77
2022/02/27 07:12:30;;;;;;;14.57;4.50;;;-3.00;99.90;;;;;;5076858;28;20420;-76
2022/02/27 07:14:57;;;;;;;17.63;4.95;;;-3.00;99.90;;;;;;5058679;28;20036;-75
2022/02/27 07:17:26;;;;;;;16.77;4.90;;;-2.90;99.90;;;;;;5076810;28;20044;-76
2022/02/27 07:19:54;;;;;;;13.50;5.35;;;-2.80;99.90;;;;;;5076505;28;20316;-76
2022/02/27 07:22:21;;;;;;;13.95;5.50;;;-2.80;99.90;;;;;;5077125;28;20099;-73
2022/02/27 07:24:49;;;;;;;13.07;4.93;;;-2.80;99.90;;;;;;5076414;28;20066;-75
2022/02/27 07:27:17;;;;;;;12.52;4.85;;;-2.70;99.90;;;;;;5076828;28;20423;-75
2022/02/27 07:29:45;;;;;;;17.17;5.78;;;-2.60;99.90;;;;;;5077577;28;20029;-73
2022/02/27 07:32:14;;;;;;;14.13;5.55;;;-2.60;99.90;;;;;;5077441;28;20044;-78
2022/02/27 07:34:42;;;;;;;11.05;4.75;;;-2.50;99.90;;;;;;5077138;28;20031;-74
2022/02/27 07:37:09;;;;;;;11.93;5.03;;;-2.40;99.90;;;;;;5059462;28;20315;-74
2022/02/27 07:39:37;;;;;;;14.65;5.68;;;-2.40;99.90;;;;;;5077462;28;20048;-79
2022/02/27 07:42:04;;;;;;;12.77;4.43;;;-2.30;99.90;;;;;;5059350;28;20025;-76
2022/02/27 07:44:32;;;;;;;10.18;4.55;;;-2.20;99.90;;;;;;5077175;28;20025;-76
2022/02/27 07:47:05;;;;;;;14.95;6.95;;;-2.10;99.90;;;;;;5077348;28;20020;-76
2022/02/27 07:49:32;;;;;;;20.95;6.88;;;-2.00;99.90;;;;;;5076504;28;20104;-75
2022/02/27 07:51:59;;;;;;;18.25;6.13;;;-1.90;99.90;;;;;;5058434;28;20115;-75
2022/02/27 07:54:27;;;;;;;17.15;7.85;;;-1.80;99.90;;;;;;5058282;28;20025;-76
2022/02/27 07:56:56;;;;;;;23.92;8.35;;;-1.70;99.90;;;;;;5076296;28;20074;-78
2022/02/27 07:59:23;;;;;;;21.80;8.63;;;-1.60;99.90;;;;;;5076086;28;20024;-78
2022/02/27 08:01:50;;;;;;;15.80;7.55;;;-1.60;99.90;;;;;;5076122;28;20020;-76
2022/02/27 08:04:18;;;;;;;17.23;6.80;;;-1.50;99.90;;;;;;5076555;28;20025;-76
2022/02/27 08:06:46;;;;;;;18.50;6.90;;;-1.40;99.90;;;;;;5076824;28;20313;-75
2022/02/27 08:09:13;;;;;;;22.73;8.50;;;-1.30;99.90;;;;;;5076193;28;20117;-75
2022/02/27 08:11:41;;;;;;;19.15;7.50;;;-1.20;99.90;;;;;;5077434;28;20070;-75
2022/02/27 08:14:09;;;;;;;19.45;6.82;;;-1.10;99.90;;;;;;5076774;28;20370;-75
2022/02/27 08:16:36;;;;;;;20.98;8.10;;;-1.00;99.90;;;;;;5060306;28;20442;-74
2022/02/27 08:19:04;;;;;;;16.13;7.85;;;-0.90;99.90;;;;;;5080615;28;20340;-73
2022/02/27 08:21:32;;;;;;;18.35;7.30;;;-0.90;99.90;;;;;;5080835;28;20355;-71
2022/02/27 08:24:00;;;;;;;24.17;6.95;;;-0.80;99.90;;;;;;5059239;28;20074;-73
2022/02/27 08:26:28;;;;;;;24.88;7.68;;;-0.70;99.90;;;;;;5061106;28;20029;-71
2022/02/27 08:28:55;;;;;;;28.08;8.00;;;-0.60;99.90;;;;;;5060821;28;20048;-72
2022/02/27 08:31:23;;;;;;;19.50;7.35;;;-0.50;99.90;;;;;;5059447;28;20021;-72
2022/02/27 08:33:50;;;;;;;15.57;5.80;;;-0.40;99.90;;;;;;5059268;28;20107;-71
2022/02/27 08:36:18;;;;;;;18.88;7.05;;;-0.30;99.90;;;;;;5059363;28;20417;-71
2022/02/27 08:38:50;;;;;;;24.75;6.93;;;-0.10;99.90;;;;;;5059575;28;20321;-71
2022/02/27 08:41:19;;;;;;;17.25;5.57;;;0.10;99.90;;;;;;5059205;28;20021;-71
2022/02/27 08:43:47;;;;;;;18.02;6.45;;;0.20;99.90;;;;;;5059182;28;20025;-70
2022/02/27 08:46:15;;;;;;;15.82;5.85;;;0.40;99.90;;;;;;5059176;28;20029;-70
2022/02/27 08:48:42;;;;;;;12.18;5.28;;;0.50;99.90;;;;;;5058056;28;20029;-70
2022/02/27 08:51:09;;;;;;;10.82;4.50;;;0.60;99.90;;;;;;5059636;28;20021;-70
2022/02/27 08:53:37;;;;;;;12.82;5.50;;;0.70;99.90;;;;;;5060436;28;20107;-73
2022/02/27 08:56:04;;;;;;;20.25;6.57;;;0.90;99.90;;;;;;5060613;28;20021;-71
2022/02/27 08:58:32;;;;;;;10.88;4.63;;;1.00;99.90;;;;;;5059858;28;20025;-69
2022/02/27 09:00:59;;;;;;;14.43;5.03;;;1.10;99.90;;;;;;5060193;28;20467;-70
2022/02/27 09:03:27;;;;;;;12.02;4.93;;;1.10;99.90;;;;;;5058730;28;20111;-70
2022/02/27 09:05:55;;;;;;;11.32;4.90;;;1.20;99.90;;;;;;5059663;28;20417;-71
2022/02/27 09:08:22;;;;;;;14.70;6.22;;;1.30;99.90;;;;;;5059674;28;20453;-71
2022/02/27 09:10:50;;;;;;;15.27;4.15;;;1.40;99.90;;;;;;5060458;28;20021;-71
2022/02/27 09:13:18;;;;;;;19.55;4.35;;;1.50;99.90;;;;;;5058521;28;20017;-72
2022/02/27 09:15:45;;;;;;;16.85;5.78;;;1.60;99.90;;;;;;5058671;28;20024;-73
2022/02/27 09:18:13;;;;;;;17.30;4.35;;;1.70;99.90;;;;;;5058501;28;20025;-74
2022/02/27 09:20:41;;;;;;;15.20;5.60;;;1.80;99.90;;;;;;5058974;28;20087;-76
2022/02/27 09:23:09;;;;;;;10.50;4.40;;;1.80;99.90;;;;;;5058736;28;20021;-74
2022/02/27 09:25:37;;;;;;;10.35;4.20;;;1.90;99.90;;;;;;5075669;28;20094;-72
2022/02/27 09:28:05;;;;;;;14.68;4.10;;;2.00;99.90;;;;;;5060029;28;20082;-74
2022/02/27 09:30:32;;;;;;;13.88;4.35;;;2.00;99.90;;;;;;5079090;28;20074;-72
2022/02/27 09:33:00;;;;;;;10.32;4.03;;;2.10;99.90;;;;;;5078352;28;20024;-72
2022/02/27 09:35:28;;;;;;;12.30;4.97;;;2.10;99.90;;;;;;5061033;28;20029;-72
2022/02/27 09:37:57;;;;;;;12.57;3.45;;;2.20;99.90;;;;;;5079127;28;20123;-72
2022/02/27 09:40:25;;;;;;;9.82;4.20;;;2.20;99.90;;;;;;5079572;28;20019;-72
2022/02/27 09:42:53;;;;;;;10.18;5.05;;;2.30;99.90;;;;;;5079036;28;20017;-72
2022/02/27 09:45:22;;;;;;;15.02;4.90;;;2.40;99.90;;;;;;5079241;28;20031;-72
2022/02/27 09:47:54;;;;;;;9.25;4.15;;;2.40;99.90;;;;;;5078922;28;20043;-71
2022/02/27 09:50:25;;;;;;;8.05;3.78;;;2.50;99.90;;;;;;5078793;28;20428;-71
2022/02/27 09:52:53;;;;;;;7.75;3.78;;;2.60;99.90;;;;;;5061138;28;20333;-71
2022/02/27 09:55:20;;;;;;;8.90;4.65;;;2.70;99.90;;;;;;5078661;28;20166;-72
2022/02/27 09:57:49;;;;;;;8.30;4.13;;;2.70;99.90;;;;;;5060143;28;20028;-71
2022/02/27 10:00:19;;;;;;;11.20;4.03;;;2.80;99.90;;;;;;5060348;28;20031;-71
2022/02/27 10:03:15;;;;;;;15.77;4.65;;;2.80;99.90;;;;;;5077827;28;20063;-71
2022/02/27 10:05:48;;;;;;;13.18;3.35;;;2.90;99.90;;;;;;5077929;28;20401;-71
2022/02/27 10:08:16;;;;;;;10.82;3.50;;;2.90;99.90;;;;;;5077609;28;20028;-71
2022/02/27 10:11:00;;;;;;;8.90;4.47;;;3.00;99.90;;;;;;5077661;28;20016;-71
2022/02/27 10:13:54;;;;;;;5.45;2.95;;;3.00;99.90;;;;;;5077474;28;20028;-71
2022/02/27 10:16:27;;;;;;;11.63;4.32;;;3.10;99.90;;;;;;5073861;28;20107;-71
2022/02/27 10:19:01;;;;;;;8.50;3.88;;;3.20;99.90;;;;;;5078294;28;20043;-71
2022/02/27 10:21:36;;;;;;;10.20;3.28;;;3.30;99.90;;;;;;5079122;28;20408;-73
2022/02/27 10:24:08;;;;;;;7.65;3.42;;;3.30;99.90;;;;;;5078032;28;20123;-72
2022/02/27 10:26:37;;;;;;;12.52;3.80;;;3.30;99.90;;;;;;5078393;28;20046;-73
2022/02/27 10:29:13;;;;;;;5.00;2.90;;;3.40;99.90;;;;;;5060438;28;20035;-73
2022/02/27 10:31:42;;;;;;;;;;;3.40;99.90;;;;;;5078587;28;20025;-74
2022/02/27 10:34:16;;;;;;;9.93;3.15;;;3.50;99.90;;;;;;5078208;28;19908;-75
2022/02/27 10:36:53;;;;;;;10.95;3.28;;;3.60;99.90;;;;;;5078404;28;20048;-73
2022/02/27 10:39:26;;;;;;;;;;;3.60;99.90;;;;;;5077797;28;20016;-73
2022/02/27 10:41:55;;;;;;;11.57;4.93;;;3.70;99.90;;;;;;5076796;28;19911;-72
2022/02/27 10:44:23;;;;;;;7.50;2.80;;;3.70;99.90;;;;;;5077191;28;20035;-73
2022/02/27 10:47:11;;;;;;;7.38;3.30;;;3.80;99.90;;;;;;5077075;28;20028;-72
2022/02/27 10:49:39;;;;;;;10.07;3.70;;;3.80;99.90;;;;;;5076835;28;20024;-72
2022/02/27 10:52:16;;;;;;;10.25;3.80;;;3.90;99.90;;;;;;5076816;28;20037;-72
2022/02/27 10:54:45;;;;;;;9.80;4.07;;;3.90;99.90;;;;;;5076642;28;20111;-72
2022/02/27 10:57:35;;;;;;;10.75;3.25;;;4.00;99.90;;;;;;5076856;28;20021;-72
2022/02/27 11:00:15;;;;;;;14.07;3.63;;;4.10;99.90;;;;;;5076863;28;20073;-72
2022/02/27 11:02:44;;;;;;;10.70;2.80;;;4.10;99.90;;;;;;5059836;28;20021;-73
2022/02/27 11:05:13;;;;;;;7.57;3.10;;;4.20;99.90;;;;;;5077558;28;20125;-73
2022/02/27 11:07:43;;;;;;;10.88;2.63;;;4.20;99.90;;;;;;5077599;28;20027;-72
2022/02/27 11:10:17;;;;;;;9.02;3.40;;;4.30;99.90;;;;;;5077499;28;20028;-72
2022/02/27 11:12:45;;;;;;;7.25;2.70;;;4.40;99.90;;;;;;5077509;28;20016;-72
2022/02/27 11:15:20;;;;;;;11.13;2.65;;;4.50;99.90;;;;;;5059522;28;20028;-72
2022/02/27 11:17:48;;;;;;;12.20;4.03;;;4.60;99.90;;;;;;5077288;28;20025;-72
2022/02/27 11:20:19;;;;;;;7.70;3.28;;;4.70;99.90;;;;;;5077788;28;20448;-71
2022/02/27 11:22:47;;;;;;;8.38;3.17;;;4.70;99.90;;;;;;5076380;28;20025;-72
2022/02/27 11:25:15;;;;;;;11.82;3.50;;;4.70;99.90;;;;;;5076203;28;20068;-72
2022/02/27 11:27:54;;;;;;;5.63;2.63;;;4.80;99.90;;;;;;5076525;28;20024;-71
2022/02/27 11:30:24;;;;;;;8.90;2.83;;;4.90;99.90;;;;;;5058578;28;20095;-71
2022/02/27 11:33:01;;;;;;;5.45;2.75;;;4.90;99.90;;;;;;5076968;28;20363;-72
2022/02/27 11:35:49;;;;;;;7.70;2.30;;;4.80;99.90;;;;;;5076208;28;20025;-73
2022/02/27 11:38:30;;;;;;;7.53;2.78;;;4.90;99.90;;;;;;5076514;28;20099;-74
2022/02/27 11:40:59;;;;;;;8.77;3.10;;;5.00;99.90;;;;;;5058656;28;20025;-73
2022/02/27 11:43:46;;;;;;;8.52;3.33;;;5.00;99.90;;;;;;5077028;28;20316;-73
2022/02/27 11:46:16;;;;;;;11.10;3.30;;;5.20;99.90;;;;;;5077319;28;20325;-73
2022/02/27 11:49:06;;;;;;;8.60;2.83;;;5.30;99.90;;;;;;5077480;28;20025;-73
2022/02/27 11:51:40;;;;;;;5.63;2.53;;;5.30;99.90;;;;;;5078672;28;20016;-73
2022/02/27 11:54:13;;;;;;;8.10;3.42;;;5.30;99.90;;;;;;5081577;28;20043;-72
2022/02/27 11:56:44;;;;;;;10.05;3.42;;;5.40;99.90;;;;;;5081124;28;20020;-72
2022/02/27 11:59:13;;;;;;;12.00;2.85;;;5.50;99.90;;;;;;5063270;28;20017;-73
2022/02/27 12:01:56;;;;;;;5.70;2.72;;;5.60;99.90;;;;;;5063155;28;20025;-72
2022/02/27 12:04:25;;;;;;;8.20;3.05;;;5.60;99.90;;;;;;5080114;28;20031;-74
2022/02/27 12:07:09;;;;;;;9.13;2.38;;;5.60;99.90;;;;;;5080028;28;20039;-75
2022/02/27 12:09:52;;;;;;;8.07;2.67;;;5.60;99.90;;;;;;5080285;28;20116;-73
2022/02/27 12:12:37;;;;;;;9.88;3.22;;;5.70;99.90;;;;;;5080425;28;20398;-73
2022/02/27 12:15:36;;;;;;;10.00;3.53;;;5.70;99.90;;;;;;5080082;28;20020;-71
2022/02/27 12:18:16;;;;;;;7.70;2.30;;;5.80;99.90;;;;;;5080101;28;20313;-71
2022/02/27 12:21:01;;;;;;;5.65;2.63;;;5.90;99.90;;;;;;5079818;28;20027;-71
2022/02/27 12:23:43;;;;;;;7.28;2.38;;;6.00;99.90;;;;;;5079917;28;20027;-72
2022/02/27 12:26:37;;;;;;;7.93;2.20;;;6.00;99.90;;;;;;5080574;28;20436;-73
2022/02/27 12:29:05;;;;;;;3.83;2.00;;;6.10;99.90;;;;;;5065652;28;20036;-72
2022/02/27 12:31:34;;;;;;;8.18;2.20;;;6.20;99.90;;;;;;5080949;28;20013;-71
2022/02/27 12:34:13;;;;;;;5.38;2.53;;;6.20;99.90;;;;;;5062466;28;20523;-73
2022/02/27 12:36:41;;;;;;;11.45;2.55;;;6.20;99.90;;;;;;5080383;28;20025;-71
2022/02/27 12:39:10;;;;;;;8.13;2.33;;;6.20;99.90;;;;;;5080826;28;20071;-71
2022/02/27 12:41:46;;;;;;;9.30;2.63;;;6.20;99.90;;;;;;5080350;28;20421;-73
2022/02/27 12:44:26;;;;;;;5.85;2.72;;;6.10;99.90;;;;;;5079760;28;20048;-74
2022/02/27 12:46:55;;;;;;;8.55;2.40;;;6.10;99.90;;;;;;5061455;28;20489;-73
2022/02/27 12:52:18;;;;;;;8.20;2.65;;;6.00;99.90;;;;;;5079113;28;20124;-72
2022/02/27 12:54:48;;;;;;;7.50;2.67;;;6.00;99.90;;;;;;5079007;28;20021;-72